KVEL/VEL METAR and TAF weather

Enter ICAO airport designator
Station Type Date Time Source
KVEL METAR 2021/09/25 11:53 UTC NOAA

KVEL 251153Z AUTO 27003KT 10SM CLR 06/01 A3023 RMK AO2 SLP192 T00560011 10128 20056 53007


Station Type Date Time Source
KVEL Decoded METAR 2021/09/25 11:53 UTC NOAA

VERNAL AIRPORT, UT, United States (KVEL) 40-26N 109-30W 1604M
Sep 25, 2021 - 07:53 AM EDT / 2021.09.25 1153 UTC
Wind: from the W (270 degrees) at 3 MPH (3 KT):0
Visibility: 10 mile(s):0
Sky conditions: clear
Temperature: 42.1 F (5.6 C)
Dew Point: 34.0 F (1.1 C)
Relative Humidity: 72%
Pressure (altimeter): 30.23 in. Hg (1023 hPa)
Pressure tendency: 0.02 inches (0.7 hPa) higher than three hours ago
ob: KVEL 251153Z AUTO 27003KT 10SM CLR 06/01 A3023 RMK AO2 SLP192 T00560011 10128 20056 53007
cycle: 12

Station Type Date Time Source
KVEL TAF 2021/09/25 12:28 UTC NOAA

TAF KVEL 251126Z 2512/2612 VRB04KT P6SM SKC
FM252000 24008G18KT P6SM SKC
FM260200 29006KT P6SM SKC

Example: see airport list